Time;durP1;ratioP1;P1;durP2;ratioP2;P2;SDS_P1;SDS_P2;PMS_P1;PMS_P2;Temp;Humidity;BMP_temperature;BMP_pressure;BME280_temperature;BME280_humidity;BME280_pressure;Samples;Min_cycle;Max_cycle;Signal;HPM_P1;HPM_P2
2022/05/22 00:02:05;;;;;;;6.07;2.80;;;13.60;99.90;;;;;;4989808;28;20105;-82
2022/05/22 00:04:30;;;;;;;5.43;2.63;;;13.50;99.90;;;;;;4993139;28;20030;-82
2022/05/22 00:06:56;;;;;;;5.60;2.97;;;13.50;99.90;;;;;;4976139;28;20026;-82
2022/05/22 00:09:23;;;;;;;6.72;3.13;;;13.50;99.90;;;;;;4993144;28;20483;-82
2022/05/22 00:11:49;;;;;;;6.22;3.08;;;13.50;99.90;;;;;;4993618;28;20140;-82
2022/05/22 00:14:16;;;;;;;4.30;2.70;;;13.40;99.90;;;;;;4975736;28;20539;-82
2022/05/22 00:16:41;;;;;;;6.40;3.05;;;13.40;99.90;;;;;;4993387;28;20066;-82
2022/05/22 00:19:21;;;;;;;6.57;3.03;;;13.40;99.90;;;;;;4992791;28;20042;-82
2022/05/22 00:21:48;;;;;;;5.40;3.13;;;13.40;99.90;;;;;;4975551;28;20022;-82
2022/05/22 00:24:15;;;;;;;3.90;3.08;;;13.40;99.90;;;;;;4992407;28;20031;-82
2022/05/22 00:26:41;;;;;;;4.72;3.00;;;13.40;99.90;;;;;;4993147;28;20027;-82
2022/05/22 00:29:07;;;;;;;8.07;3.13;;;13.30;99.90;;;;;;4981699;28;20026;-83
2022/05/22 00:31:33;;;;;;;5.32;3.10;;;13.30;99.90;;;;;;4994930;28;20034;-82
2022/05/22 00:33:58;;;;;;;5.47;3.10;;;13.30;99.90;;;;;;5012942;28;20042;-82
2022/05/22 00:36:24;;;;;;;4.40;2.97;;;13.30;99.90;;;;;;4999237;28;20035;-82
2022/05/22 00:38:50;;;;;;;4.63;2.90;;;13.30;99.90;;;;;;4993145;28;20562;-82
2022/05/22 00:41:17;;;;;;;4.97;2.90;;;13.30;99.90;;;;;;4976167;28;20824;-82
2022/05/22 00:43:51;;;;;;;4.68;3.00;;;13.20;99.90;;;;;;4993312;28;20491;-82
2022/05/22 00:46:19;;;;;;;5.35;2.80;;;13.20;99.90;;;;;;4985383;28;20428;-82
2022/05/22 00:48:49;;;;;;;7.10;3.08;;;13.20;99.90;;;;;;4955622;28;20026;-82
2022/05/22 00:51:21;;;;;;;7.72;3.03;;;13.20;99.90;;;;;;4973329;28;20022;-82
2022/05/22 00:53:54;;;;;;;6.45;3.72;;;13.20;99.90;;;;;;4974227;28;20328;-82
2022/05/22 00:56:25;;;;;;;7.95;3.45;;;13.20;99.90;;;;;;4978156;28;20027;-82
2022/05/22 00:58:53;;;;;;;7.10;3.05;;;13.10;99.90;;;;;;4973278;28;20065;-82
2022/05/22 01:01:18;;;;;;;4.78;2.83;;;13.00;99.90;;;;;;4973060;28;20077;-82
2022/05/22 01:03:44;;;;;;;6.03;3.28;;;13.10;99.90;;;;;;4973312;28;20039;-82
2022/05/22 01:06:16;;;;;;;4.82;3.72;;;13.00;99.90;;;;;;4973227;28;20023;-82
2022/05/22 01:08:43;;;;;;;6.63;3.63;;;13.00;99.90;;;;;;4973165;28;20057;-82
2022/05/22 01:11:21;;;;;;;6.35;3.80;;;13.00;99.90;;;;;;4972953;28;20109;-82
2022/05/22 01:13:55;;;;;;;7.20;4.57;;;13.00;99.90;;;;;;4972926;28;20035;-82
2022/05/22 01:16:20;;;;;;;8.80;4.22;;;13.00;99.90;;;;;;4972715;28;20472;-82
2022/05/22 01:18:50;;;;;;;6.47;4.72;;;13.00;99.90;;;;;;4992154;28;20108;-82
2022/05/22 01:21:22;;;;;;;7.22;5.10;;;12.90;99.90;;;;;;4973649;28;20060;-82
2022/05/22 01:23:47;;;;;;;9.07;4.72;;;12.90;99.90;;;;;;4992383;28;20023;-82
2022/05/22 01:26:14;;;;;;;8.57;5.68;;;12.80;99.90;;;;;;4991885;28;20040;-82
2022/05/22 01:28:40;;;;;;;8.90;4.82;;;12.80;99.90;;;;;;4974722;28;20105;-82
2022/05/22 01:31:06;;;;;;;6.35;4.80;;;12.80;99.90;;;;;;4992323;28;20050;-82
2022/05/22 01:33:36;;;;;;;6.95;5.05;;;12.70;99.90;;;;;;4992069;28;20106;-82
2022/05/22 01:36:02;;;;;;;7.88;4.30;;;12.70;99.90;;;;;;4985140;28;20066;-82
2022/05/22 01:38:30;;;;;;;7.32;4.28;;;12.70;99.90;;;;;;4972806;28;20122;-82
2022/05/22 01:40:56;;;;;;;8.13;4.20;;;12.70;99.90;;;;;;4987230;28;20376;-82
2022/05/22 01:43:21;;;;;;;6.40;4.07;;;12.70;99.90;;;;;;4991701;28;20027;-81
2022/05/22 01:45:48;;;;;;;6.22;4.63;;;12.70;99.90;;;;;;4991598;28;20026;-82
2022/05/22 01:48:14;;;;;;;6.25;4.00;;;12.70;99.90;;;;;;4991914;28;20042;-82
2022/05/22 01:50:42;;;;;;;6.93;4.55;;;12.70;99.90;;;;;;4972731;28;20030;-82
2022/05/22 01:53:08;;;;;;;6.55;4.07;;;12.60;99.90;;;;;;4972558;28;20027;-81
2022/05/22 01:55:34;;;;;;;10.75;4.05;;;12.60;99.90;;;;;;4984653;28;20034;-82
2022/05/22 01:57:59;;;;;;;5.97;4.22;;;12.60;99.90;;;;;;4991494;28;20084;-82
2022/05/22 02:00:26;;;;;;;7.93;4.40;;;12.60;99.90;;;;;;4992575;28;20479;-82
2022/05/22 02:02:55;;;;;;;8.30;4.22;;;12.50;99.90;;;;;;4995397;28;20045;-83
2022/05/22 02:05:21;;;;;;;5.18;3.97;;;12.50;99.90;;;;;;4995399;28;20031;-83
2022/05/22 02:10:32;;;;;;;7.18;4.20;;;12.50;99.90;;;;;;4995550;28;20069;-83
2022/05/22 02:12:58;;;;;;;6.75;4.15;;;12.40;99.90;;;;;;4995299;28;20077;-83
2022/05/22 02:15:24;;;;;;;4.97;3.92;;;12.40;99.90;;;;;;4989967;28;20027;-83
2022/05/22 02:17:51;;;;;;;6.85;4.25;;;12.40;99.90;;;;;;4975926;28;20860;-83
2022/05/22 02:20:17;;;;;;;6.00;3.83;;;12.30;99.90;;;;;;4975999;28;20376;-83
2022/05/22 02:22:45;;;;;;;9.98;4.30;;;12.30;99.90;;;;;;4989299;28;20043;-83
2022/05/22 02:25:17;;;;;;;10.02;5.20;;;12.30;99.90;;;;;;4994981;28;20039;-83
2022/05/22 02:27:43;;;;;;;6.20;4.15;;;12.20;99.90;;;;;;4994282;28;20077;-83
2022/05/22 02:30:11;;;;;;;9.45;3.95;;;12.20;99.90;;;;;;4976673;28;20106;-83
2022/05/22 02:32:37;;;;;;;9.40;3.90;;;12.10;99.90;;;;;;4993718;28;20030;-83
2022/05/22 02:35:08;;;;;;;6.82;3.75;;;12.10;99.90;;;;;;4994841;28;20133;-83
2022/05/22 02:37:48;;;;;;;6.97;3.90;;;12.10;99.90;;;;;;4994379;28;20427;-83
2022/05/22 02:40:15;;;;;;;7.25;5.07;;;12.00;99.90;;;;;;4988972;28;20118;-83
2022/05/22 02:42:43;;;;;;;6.55;3.60;;;12.00;99.90;;;;;;4974950;28;20102;-83
2022/05/22 02:45:10;;;;;;;5.53;3.80;;;12.00;99.90;;;;;;4975162;28;20097;-83
2022/05/22 02:47:37;;;;;;;7.38;4.45;;;11.90;99.90;;;;;;4958029;28;20551;-83
2022/05/22 02:50:03;;;;;;;9.80;4.40;;;12.00;99.90;;;;;;4957984;28;20026;-83
2022/05/22 02:52:29;;;;;;;6.15;4.47;;;11.90;99.90;;;;;;4984338;28;20033;-82
2022/05/22 02:54:57;;;;;;;5.93;4.20;;;11.90;99.90;;;;;;4973558;28;20034;-83
2022/05/22 02:57:23;;;;;;;9.70;5.13;;;11.80;99.90;;;;;;4989466;28;20034;-83
2022/05/22 02:59:49;;;;;;;6.93;4.88;;;11.80;99.90;;;;;;4977468;28;20073;-83
2022/05/22 03:02:16;;;;;;;6.13;4.15;;;11.80;99.90;;;;;;4969677;28;20802;-83
2022/05/22 03:04:42;;;;;;;8.32;4.63;;;11.70;99.90;;;;;;4975373;28;20031;-83
2022/05/22 03:07:09;;;;;;;9.88;4.70;;;11.70;99.90;;;;;;4974896;28;20033;-83
2022/05/22 03:09:37;;;;;;;6.97;4.40;;;11.70;99.90;;;;;;4974524;28;20035;-83
2022/05/22 03:12:15;;;;;;;7.05;4.68;;;11.70;99.90;;;;;;4974069;28;20097;-83
2022/05/22 03:14:49;;;;;;;7.93;4.53;;;11.70;99.90;;;;;;4974166;28;20415;-83
2022/05/22 03:17:14;;;;;;;5.97;4.55;;;11.70;99.90;;;;;;4975501;28;20069;-83
2022/05/22 03:19:41;;;;;;;6.80;4.75;;;11.70;99.90;;;;;;4975542;28;20023;-83
2022/05/22 03:22:07;;;;;;;8.52;5.07;;;11.80;99.90;;;;;;4975187;28;20030;-83
2022/05/22 03:24:33;;;;;;;8.30;4.90;;;11.80;99.90;;;;;;4974956;28;20106;-83
2022/05/22 03:27:04;;;;;;;7.82;4.70;;;11.80;99.90;;;;;;4975098;28;20031;-83
2022/05/22 03:29:30;;;;;;;6.40;4.88;;;11.80;99.90;;;;;;4960278;28;20046;-83
2022/05/22 03:31:55;;;;;;;6.68;5.10;;;11.70;99.90;;;;;;4994349;28;20034;-83
2022/05/22 03:34:21;;;;;;;9.13;5.35;;;11.70;99.90;;;;;;4976523;28;20061;-83
2022/05/22 03:36:47;;;;;;;7.22;4.88;;;11.70;99.90;;;;;;4994195;28;20113;-83
2022/05/22 03:39:14;;;;;;;10.65;5.03;;;11.70;99.90;;;;;;4976173;28;20443;-83
2022/05/22 03:41:40;;;;;;;7.85;5.00;;;11.70;99.90;;;;;;4978086;28;20027;-83
2022/05/22 03:44:06;;;;;;;8.70;5.05;;;11.70;99.90;;;;;;4985118;28;20031;-83
2022/05/22 03:46:32;;;;;;;7.25;4.82;;;11.70;99.90;;;;;;4974766;28;20381;-83
2022/05/22 03:48:58;;;;;;;6.13;5.07;;;11.70;99.90;;;;;;4974240;28;20058;-83
2022/05/22 03:51:24;;;;;;;7.20;5.07;;;11.70;99.90;;;;;;4974490;28;20019;-83
2022/05/22 03:53:50;;;;;;;9.20;5.20;;;11.70;99.90;;;;;;4975012;28;20030;-83
2022/05/22 03:56:17;;;;;;;8.02;5.35;;;11.70;99.90;;;;;;4983728;28;20099;-83
2022/05/22 03:58:43;;;;;;;7.53;4.93;;;11.70;99.90;;;;;;4993393;28;20029;-83
2022/05/22 04:01:09;;;;;;;6.82;4.70;;;11.70;99.90;;;;;;4992852;28;20022;-83
2022/05/22 04:03:35;;;;;;;7.47;4.63;;;11.60;99.90;;;;;;4973883;28;20369;-83
2022/05/22 04:06:03;;;;;;;8.02;4.88;;;11.60;99.90;;;;;;4956503;28;20057;-83
2022/05/22 04:08:29;;;;;;;8.98;4.78;;;11.60;99.90;;;;;;4973866;28;20027;-83
2022/05/22 04:10:55;;;;;;;8.05;4.50;;;11.70;99.90;;;;;;4983997;28;20027;-83
2022/05/22 04:13:20;;;;;;;9.35;4.97;;;11.70;99.90;;;;;;4993428;28;20030;-78
2022/05/22 04:15:46;;;;;;;8.98;4.90;;;11.70;99.90;;;;;;4994084;28;20058;-78
2022/05/22 04:18:13;;;;;;;6.13;4.57;;;11.80;99.90;;;;;;4994241;28;20030;-78
2022/05/22 04:20:39;;;;;;;9.63;5.28;;;11.80;99.90;;;;;;4993860;28;20129;-78
2022/05/22 04:25:57;;;;;;;5.55;4.90;;;11.90;99.90;;;;;;4994232;28;20116;-78
2022/05/22 04:28:24;;;;;;;6.67;4.53;;;11.90;99.90;;;;;;4976531;28;20034;-78
2022/05/22 04:30:51;;;;;;;6.57;5.00;;;12.00;99.90;;;;;;4988733;28;20023;-78
2022/05/22 04:33:16;;;;;;;6.35;4.25;;;12.00;99.90;;;;;;5001972;28;20018;-78
2022/05/22 04:35:43;;;;;;;6.60;4.47;;;12.00;99.90;;;;;;5002052;28;20068;-78
2022/05/22 04:38:10;;;;;;;7.07;4.85;;;12.00;99.90;;;;;;5013133;28;20113;-78
2022/05/22 04:40:36;;;;;;;9.45;4.68;;;12.10;99.90;;;;;;5001404;28;20506;-78
2022/05/22 04:43:02;;;;;;;13.20;5.05;;;12.10;99.90;;;;;;4993554;28;20018;-78
2022/05/22 04:45:28;;;;;;;6.53;4.70;;;12.10;99.90;;;;;;4995776;28;20101;-78
2022/05/22 04:47:53;;;;;;;7.50;4.47;;;12.10;99.90;;;;;;4994519;28;20085;-78
2022/05/22 04:50:19;;;;;;;8.68;4.70;;;12.10;99.90;;;;;;4992928;28;20069;-78
2022/05/22 04:52:45;;;;;;;9.50;4.63;;;12.10;99.90;;;;;;4980737;28;20111;-78
2022/05/22 04:55:11;;;;;;;5.60;4.93;;;12.20;99.90;;;;;;4991442;28;20038;-78
2022/05/22 04:57:37;;;;;;;7.20;5.10;;;12.20;99.90;;;;;;4999220;28;20137;-79
2022/05/22 05:00:09;;;;;;;8.38;4.78;;;12.30;99.90;;;;;;4998884;28;20022;-83
2022/05/22 05:02:35;;;;;;;6.60;4.78;;;12.40;99.90;;;;;;5002411;28;20061;-79
2022/05/22 05:05:01;;;;;;;9.32;5.20;;;12.40;99.90;;;;;;4998756;28;20018;-80
2022/05/22 05:07:27;;;;;;;7.10;4.18;;;12.50;99.90;;;;;;4998666;28;20045;-79
2022/05/22 05:09:53;;;;;;;8.98;5.10;;;12.60;99.90;;;;;;4984696;28;20026;-83
2022/05/22 05:12:18;;;;;;;8.48;4.82;;;12.70;99.90;;;;;;4997200;28;20076;-83
2022/05/22 05:14:45;;;;;;;7.68;4.95;;;12.80;99.90;;;;;;4996565;28;20110;-78
2022/05/22 05:17:13;;;;;;;6.10;4.35;;;12.90;99.90;;;;;;4977098;28;20030;-78
2022/05/22 05:19:39;;;;;;;6.50;4.60;;;13.00;99.90;;;;;;4986707;28;20026;-78
2022/05/22 05:22:05;;;;;;;6.15;4.15;;;13.00;99.90;;;;;;5004168;28;20360;-78
2022/05/22 05:24:30;;;;;;;5.18;3.92;;;13.10;99.90;;;;;;4995041;28;20023;-78
2022/05/22 05:26:56;;;;;;;5.45;4.50;;;13.20;99.90;;;;;;4979708;28;20019;-78
2022/05/22 05:29:22;;;;;;;8.88;4.25;;;13.20;99.90;;;;;;4996192;28;20038;-79
2022/05/22 05:31:48;;;;;;;5.95;4.35;;;13.30;99.90;;;;;;5000356;28;20018;-80
2022/05/22 05:34:14;;;;;;;8.50;4.07;;;13.40;99.90;;;;;;5006280;28;20050;-80
2022/05/22 05:36:40;;;;;;;5.50;3.72;;;13.60;99.90;;;;;;4993846;28;20027;-79
2022/05/22 05:39:07;;;;;;;4.25;3.13;;;13.70;99.90;;;;;;4999433;28;20081;-79
2022/05/22 05:41:35;;;;;;;4.97;3.17;;;13.90;99.90;;;;;;5010062;28;20033;-79
2022/05/22 05:44:05;;;;;;;7.93;3.00;;;14.10;99.90;;;;;;5001598;28;20032;-79
2022/05/22 05:46:32;;;;;;;5.45;2.97;;;14.30;99.90;;;;;;4995098;28;20019;-80
2022/05/22 05:48:58;;;;;;;5.20;2.45;;;14.50;99.90;;;;;;4989075;28;20025;-79
2022/05/22 05:51:23;;;;;;;8.13;2.47;;;14.70;99.90;;;;;;4999317;28;20038;-80
2022/05/22 05:53:49;;;;;;;5.18;2.30;;;14.90;99.90;;;;;;4998223;28;20475;-79
2022/05/22 05:56:14;;;;;;;5.95;2.40;;;15.10;99.90;;;;;;4996985;28;20027;-78
2022/05/22 05:58:42;;;;;;;5.38;2.30;;;15.30;99.90;;;;;;5004442;28;20029;-75
2022/05/22 06:01:15;;;;;;;4.63;2.10;;;15.50;99.90;;;;;;4998349;28;20064;-75
2022/05/22 06:03:40;;;;;;;5.68;2.60;;;15.70;99.90;;;;;;5009629;28;20034;-75
2022/05/22 06:06:07;;;;;;;5.63;2.58;;;15.90;99.90;;;;;;5005766;28;20374;-75
2022/05/22 06:08:33;;;;;;;3.15;1.90;;;16.00;99.90;;;;;;4992194;28;20033;-75
2022/05/22 06:10:59;;;;;;;6.13;2.08;;;16.20;99.90;;;;;;4992950;28;20034;-75
2022/05/22 06:13:25;;;;;;;5.28;2.10;;;16.30;99.90;;;;;;4978529;28;20027;-75
2022/05/22 06:15:52;;;;;;;4.13;1.90;;;16.50;99.90;;;;;;4983959;28;20030;-75
2022/05/22 06:18:18;;;;;;;5.55;2.10;;;16.70;99.90;;;;;;4991771;28;20030;-75
2022/05/22 06:20:44;;;;;;;14.00;2.28;;;16.80;99.90;;;;;;4991484;28;20083;-75
2022/05/22 06:23:10;;;;;;;7.00;2.10;;;17.00;99.90;;;;;;4990956;28;20034;-75
2022/05/22 06:25:35;;;;;;;6.20;1.80;;;17.20;99.90;;;;;;4991506;28;20026;-75
2022/05/22 06:28:01;;;;;;;6.05;1.70;;;17.30;99.90;;;;;;4991490;28;20038;-72
2022/05/22 06:30:26;;;;;;;3.92;1.55;;;17.40;99.90;;;;;;4977886;28;20831;-72
2022/05/22 06:32:52;;;;;;;2.92;1.45;;;17.50;99.90;;;;;;4984525;28;20883;-72
2022/05/22 06:35:18;;;;;;;4.63;2.00;;;17.70;99.90;;;;;;4991483;28;20058;-75
2022/05/22 06:37:44;;;;;;;3.67;1.83;;;17.70;99.90;;;;;;5002939;28;20033;-74
2022/05/22 06:40:10;;;;;;;3.08;1.55;;;17.80;99.90;;;;;;5012569;28;20061;-75
2022/05/22 06:42:42;;;;;;;3.53;1.45;;;17.80;99.90;;;;;;4991193;28;20069;-74
2022/05/22 06:45:13;;;;;;;4.78;1.60;;;17.90;99.90;;;;;;4973279;28;20110;-74
2022/05/22 06:47:40;;;;;;;3.50;1.73;;;17.90;99.90;;;;;;4992411;28;20026;-74
2022/05/22 06:50:08;;;;;;;6.75;1.85;;;17.90;99.90;;;;;;4992823;28;20026;-74
2022/05/22 06:52:34;;;;;;;4.22;1.65;;;18.00;99.90;;;;;;4983745;28;20053;-75
2022/05/22 06:55:00;;;;;;;4.88;1.67;;;18.00;99.90;;;;;;4967455;28;20030;-75
2022/05/22 06:57:28;;;;;;;4.75;1.60;;;18.00;99.90;;;;;;4972242;28;20057;-74
2022/05/22 06:59:55;;;;;;;3.05;1.55;;;18.10;99.90;;;;;;4973582;28;20039;-74
2022/05/22 07:02:22;;;;;;;4.22;1.60;;;18.00;99.90;;;;;;4974627;28;20035;-74
2022/05/22 07:04:48;;;;;;;3.90;2.00;;;18.00;99.90;;;;;;4998125;28;20038;-74
2022/05/22 07:07:13;;;;;;;4.43;1.75;;;18.00;99.90;;;;;;4993265;28;20026;-80
2022/05/22 07:09:45;;;;;;;4.07;1.65;;;18.10;99.90;;;;;;5005823;28;20034;-73
2022/05/22 07:12:12;;;;;;;3.70;1.60;;;18.10;99.90;;;;;;4994428;28;20038;-73
2022/05/22 07:14:38;;;;;;;4.18;1.40;;;18.20;99.90;;;;;;4976898;28;20062;-74
2022/05/22 07:17:05;;;;;;;4.13;1.60;;;18.20;99.90;;;;;;4976552;28;20459;-73
2022/05/22 07:19:34;;;;;;;8.23;2.10;;;18.20;99.90;;;;;;4976609;28;20027;-73
2022/05/22 07:22:01;;;;;;;4.40;1.80;;;18.30;99.90;;;;;;4976820;28;20113;-73
2022/05/22 07:24:27;;;;;;;4.18;2.00;;;18.30;99.90;;;;;;4975876;28;20042;-73
2022/05/22 07:26:53;;;;;;;6.07;1.88;;;18.40;99.90;;;;;;5000366;28;20041;-72
2022/05/22 07:29:19;;;;;;;4.78;1.73;;;18.40;99.90;;;;;;5014569;28;20026;-73
2022/05/22 07:31:44;;;;;;;3.63;1.95;;;18.50;99.90;;;;;;5014231;28;20153;-71
2022/05/22 07:34:10;;;;;;;3.22;1.80;;;18.40;99.90;;;;;;5014344;28;20129;-72
2022/05/22 07:36:35;;;;;;;5.22;2.05;;;18.50;99.90;;;;;;5015853;28;20029;-71
2022/05/22 07:39:03;;;;;;;2.67;1.50;;;18.50;99.90;;;;;;5014549;28;20038;-81
2022/05/22 07:41:31;;;;;;;6.03;1.90;;;18.50;99.90;;;;;;5013026;28;20355;-73
2022/05/22 07:43:57;;;;;;;4.63;1.58;;;18.50;99.90;;;;;;5014630;28;20033;-73
2022/05/22 07:46:22;;;;;;;3.90;1.65;;;18.60;99.90;;;;;;4996472;28;20022;-73
2022/05/22 07:48:48;;;;;;;3.80;1.70;;;18.60;99.90;;;;;;4981758;28;20027;-73
2022/05/22 07:51:14;;;;;;;5.57;2.00;;;18.70;99.90;;;;;;4995031;28;20033;-74
2022/05/22 07:53:40;;;;;;;7.55;1.98;;;18.80;99.90;;;;;;4995149;28;20402;-72
2022/05/22 07:56:07;;;;;;;3.30;1.60;;;18.80;99.90;;;;;;4995243;28;20467;-78
2022/05/22 07:58:33;;;;;;;5.18;1.70;;;18.90;99.90;;;;;;4994250;28;20037;-73
2022/05/22 08:00:59;;;;;;;3.78;1.80;;;18.90;99.90;;;;;;5006988;28;20478;-73
2022/05/22 08:03:26;;;;;;;3.50;1.30;;;18.90;99.90;;;;;;4980930;28;20031;-73
2022/05/22 08:05:53;;;;;;;4.85;1.52;;;18.90;99.90;;;;;;4975585;28;20022;-73
2022/05/22 08:08:19;;;;;;;7.32;1.65;;;19.00;99.90;;;;;;4986946;28;20038;-71
2022/05/22 08:10:45;;;;;;;5.85;1.92;;;19.00;99.90;;;;;;5004290;28;20033;-72
2022/05/22 08:13:13;;;;;;;6.82;1.60;;;19.00;99.90;;;;;;5011908;28;20026;-73
2022/05/22 08:15:41;;;;;;;3.60;1.48;;;19.00;99.90;;;;;;4990283;28;20030;-71
2022/05/22 08:18:07;;;;;;;4.65;2.20;;;19.10;99.90;;;;;;4990102;28;20073;-72
2022/05/22 08:20:36;;;;;;;4.22;1.42;;;19.10;99.90;;;;;;4990776;28;20390;-77
2022/05/22 08:23:04;;;;;;;4.88;1.70;;;19.10;99.90;;;;;;4992083;28;20022;-77
2022/05/22 08:25:31;;;;;;;4.78;1.50;;;19.20;99.90;;;;;;4991638;28;20037;-76
2022/05/22 08:27:57;;;;;;;3.45;1.55;;;19.30;99.90;;;;;;4991634;28;20031;-76
2022/05/22 08:30:28;;;;;;;4.22;1.90;;;19.40;99.90;;;;;;4980975;28;20084;-76
2022/05/22 08:32:53;;;;;;;3.20;1.50;;;19.30;99.90;;;;;;4992173;28;20033;-76
2022/05/22 08:35:26;;;;;;;2.95;1.50;;;19.30;99.90;;;;;;4991902;28;20046;-77
2022/05/22 08:37:53;;;;;;;3.45;1.65;;;19.40;99.90;;;;;;4957558;28;20415;-77
2022/05/22 08:40:22;;;;;;;4.88;1.58;;;19.50;99.90;;;;;;4972510;28;20027;-76
2022/05/22 08:43:16;;;;;;;3.45;1.52;;;19.50;99.90;;;;;;4972251;28;20023;-77
2022/05/22 08:45:54;;;;;;;4.28;1.40;;;19.60;99.90;;;;;;4971832;28;20464;-76
2022/05/22 08:48:33;;;;;;;3.33;1.40;;;19.50;99.90;;;;;;4972321;28;20062;-77
2022/05/22 08:51:00;;;;;;;2.67;1.50;;;19.60;99.90;;;;;;4971938;28;20015;-76
2022/05/22 08:53:37;;;;;;;4.30;1.63;;;19.70;99.90;;;;;;4971827;28;20043;-76
2022/05/22 08:59:05;;;;;;;3.70;1.80;;;19.90;99.90;;;;;;4991827;28;20538;-76
2022/05/22 09:01:52;;;;;;;2.65;1.40;;;19.90;99.90;;;;;;4991898;28;20022;-77
2022/05/22 09:04:45;;;;;;;1.95;1.20;;;19.90;99.90;;;;;;4991428;28;20031;-76
2022/05/22 09:07:24;;;;;;;5.75;1.55;;;19.90;99.90;;;;;;4988934;28;20080;-76
2022/05/22 09:10:01;;;;;;;3.53;1.60;;;20.00;99.90;;;;;;4990345;28;20072;-76
2022/05/22 09:12:53;;;;;;;2.30;1.20;;;20.20;99.90;;;;;;4978763;28;20058;-77
2022/05/22 09:15:21;;;;;;;2.92;1.27;;;20.40;99.90;;;;;;4979183;28;20499;-79
2022/05/22 09:18:14;;;;;;;5.18;1.55;;;20.50;99.90;;;;;;4989372;28;20046;-79
2022/05/22 09:20:53;;;;;;;2.97;1.30;;;20.70;99.90;;;;;;4987814;28;20447;-79
2022/05/22 09:23:43;;;;;;;3.00;1.38;;;21.00;99.90;;;;;;4974696;28;20038;-79
2022/05/22 09:26:19;;;;;;;2.67;1.13;;;21.20;99.90;;;;;;4969936;28;20423;-79
2022/05/22 09:28:59;;;;;;;4.72;1.63;;;21.50;99.90;;;;;;4970207;28;20031;-79
2022/05/22 09:31:43;;;;;;;1.83;1.20;;;21.70;99.90;;;;;;4972138;28;20081;-79
2022/05/22 09:34:21;;;;;;;7.55;1.50;;;22.00;99.90;;;;;;4989321;28;20052;-77
2022/05/22 09:36:59;;;;;;;4.10;1.83;;;22.30;99.90;;;;;;4977900;28;20041;-77
2022/05/22 09:39:47;;;;;;;3.33;1.15;;;22.40;99.90;;;;;;4969730;28;20139;-77
2022/05/22 09:42:18;;;;;;;3.30;1.90;;;22.60;98.40;;;;;;4969792;28;20031;-77
2022/05/22 09:44:57;;;;;;;4.60;1.40;;;22.60;98.00;;;;;;4969605;28;20039;-77
2022/05/22 09:47:46;;;;;;;1.77;1.10;;;22.90;95.60;;;;;;4969855;28;20073;-77
2022/05/22 09:50:46;;;;;;;5.90;2.03;;;23.00;95.30;;;;;;4989027;28;20037;-77
2022/05/22 09:53:51;;;;;;;2.65;1.38;;;23.20;95.70;;;;;;4988764;28;20022;-77
2022/05/22 09:56:36;;;;;;;3.83;1.20;;;23.40;94.70;;;;;;4982567;28;20488;-77
2022/05/22 09:59:21;;;;;;;2.50;1.35;;;23.40;93.00;;;;;;4976471;28;20439;-77
2022/05/22 10:01:51;;;;;;;;;;;23.30;96.40;;;;;;4952712;28;20038;-77
2022/05/22 10:04:49;;;;;;;2.45;1.30;;;23.50;94.00;;;;;;4970940;28;19922;-77
2022/05/22 10:07:25;;;;;;;3.65;1.42;;;23.80;95.60;;;;;;4969384;28;20089;-77
2022/05/22 10:10:18;;;;;;;4.15;1.40;;;24.10;95.70;;;;;;4988206;28;20027;-77
2022/05/22 10:13:02;;;;;;;5.90;1.20;;;24.50;92.10;;;;;;4963410;28;20479;-80
2022/05/22 10:15:54;;;;;;;2.97;1.25;;;24.60;91.50;;;;;;4988471;28;20112;-68
2022/05/22 10:18:32;;;;;;;3.97;1.45;;;24.70;92.60;;;;;;4972080;28;20039;-69
2022/05/22 10:21:08;;;;;;;2.58;1.15;;;24.90;90.20;;;;;;4996456;28;20038;-69
2022/05/22 10:24:11;;;;;;;2.53;1.27;;;24.70;91.40;;;;;;5004583;28;20029;-69
2022/05/22 10:26:44;;;;;;;2.97;1.50;;;24.90;91.50;;;;;;5005157;28;20026;-70
2022/05/22 10:29:26;;;;;;;6.03;1.33;;;25.20;91.80;;;;;;5008852;28;20427;-70
2022/05/22 10:32:03;;;;;;;4.25;1.40;;;25.40;93.10;;;;;;5008441;28;20045;-70
2022/05/22 10:34:36;;;;;;;6.13;1.45;;;25.70;87.40;;;;;;5007342;28;20053;-71
2022/05/22 10:37:12;;;;;;;3.33;1.30;;;25.70;89.30;;;;;;5006397;28;20038;-71
2022/05/22 10:39:37;;;;;;;4.65;1.63;;;25.50;90.70;;;;;;4984940;28;20051;-70
2022/05/22 10:45:20;;;;;;;2.78;1.38;;;25.10;90.50;;;;;;4996491;28;20189;-70
2022/05/22 10:47:46;;;;;;;3.47;1.40;;;25.00;90.20;;;;;;4994963;28;20019;-71
2022/05/22 10:50:25;;;;;;;2.78;1.30;;;24.80;87.20;;;;;;4995219;28;20489;-71
2022/05/22 10:52:51;;;;;;;2.25;1.30;;;24.70;86.30;;;;;;4992044;28;20023;-70
2022/05/22 10:55:26;;;;;;;3.08;1.10;;;24.50;90.30;;;;;;4977719;28;20027;-70
2022/05/22 10:57:53;;;;;;;;;;;24.60;87.50;;;;;;4993103;28;20026;-70
2022/05/22 11:00:19;;;;;;;2.72;1.20;;;24.90;89.10;;;;;;4992377;28;19926;-70
2022/05/22 11:02:45;;;;;;;3.72;1.50;;;25.10;88.70;;;;;;4993947;28;20475;-70
2022/05/22 11:05:20;;;;;;;3.42;1.40;;;25.10;85.10;;;;;;4993590;28;20070;-70
2022/05/22 11:07:51;;;;;;;1.20;1.00;;;25.20;88.60;;;;;;4961737;28;20387;-70
2022/05/22 11:10:33;;;;;;;1.30;1.00;;;25.60;79.00;;;;;;4977417;28;20547;-70
2022/05/22 11:13:24;;;;;;;2.05;1.40;;;25.80;78.30;;;;;;4993689;28;20027;-70
2022/05/22 11:15:50;;;;;;;4.85;1.20;;;26.10;78.90;;;;;;4989978;28;20037;-70
2022/05/22 11:18:22;;;;;;;3.50;1.30;;;26.10;78.60;;;;;;4998149;28;20026;-69
2022/05/22 11:21:34;;;;;;;4.72;1.00;;;26.10;81.40;;;;;;5007075;28;20115;-69
2022/05/22 11:24:13;;;;;;;3.88;1.20;;;26.20;80.90;;;;;;4935221;28;20377;-69
2022/05/22 11:26:58;;;;;;;4.15;1.23;;;26.50;78.40;;;;;;4975134;28;20111;-68
2022/05/22 11:29:39;;;;;;;4.15;1.10;;;26.40;78.30;;;;;;4984398;28;20026;-69
2022/05/22 11:32:23;;;;;;;2.92;1.02;;;26.30;78.60;;;;;;4975884;28;20038;-68
2022/05/22 11:35:18;;;;;;;2.92;1.15;;;26.30;73.50;;;;;;4986787;28;20047;-69
2022/05/22 11:38:01;;;;;;;2.65;1.27;;;26.30;78.50;;;;;;4994670;28;20069;-69
2022/05/22 11:40:40;;;;;;;3.97;1.17;;;26.70;77.80;;;;;;4992555;28;20371;-69
2022/05/22 11:43:34;;;;;;;4.30;1.02;;;26.80;76.20;;;;;;4994143;28;20030;-69
2022/05/22 11:46:27;;;;;;;2.05;1.15;;;27.00;76.80;;;;;;4991164;28;20042;-69
2022/05/22 11:49:16;;;;;;;1.35;0.90;;;27.40;73.90;;;;;;4992181;28;20034;-69
2022/05/22 11:52:12;;;;;;;1.70;0.93;;;27.40;79.20;;;;;;4992660;28;21176;-70
2022/05/22 11:55:19;;;;;;;2.05;1.10;;;27.40;71.60;;;;;;4991024;28;20042;-69
2022/05/22 11:58:15;;;;;;;2.33;1.30;;;27.50;73.90;;;;;;4992977;28;20038;-69
2022/05/22 12:00:49;;;;;;;1.92;1.10;;;27.80;71.10;;;;;;4994342;28;20108;-69
2022/05/22 12:03:53;;;;;;;2.88;1.50;;;27.70;70.10;;;;;;4993047;28;20034;-69
2022/05/22 12:06:39;;;;;;;1.77;1.10;;;27.80;65.10;;;;;;4990771;28;20177;-69
2022/05/22 12:09:08;;;;;;;2.40;1.10;;;28.30;68.00;;;;;;4978224;28;20061;-69
2022/05/22 12:11:53;;;;;;;4.05;1.30;;;28.50;68.40;;;;;;4992540;28;20093;-69
2022/05/22 12:14:36;;;;;;;2.70;1.20;;;28.30;65.80;;;;;;4992465;28;20026;-70
2022/05/22 12:17:11;;;;;;;4.68;1.20;;;28.40;66.50;;;;;;4994858;28;20038;-69
2022/05/22 12:19:47;;;;;;;2.85;1.10;;;29.00;64.10;;;;;;4991471;28;20022;-69
2022/05/22 12:22:20;;;;;;;3.10;1.20;;;28.90;64.70;;;;;;4999811;28;20029;-70
2022/05/22 12:24:59;;;;;;;3.23;1.00;;;29.10;64.30;;;;;;4986350;28;20502;-69
2022/05/22 12:27:31;;;;;;;2.72;1.10;;;28.90;64.00;;;;;;4990573;28;20050;-69
2022/05/22 12:30:11;;;;;;;1.52;1.08;;;28.90;61.10;;;;;;4990187;28;20914;-69
2022/05/22 12:32:47;;;;;;;2.10;1.10;;;29.20;61.00;;;;;;4982216;28;20081;-69
2022/05/22 12:35:13;;;;;;;2.10;1.20;;;29.10;61.50;;;;;;4972270;28;20185;-69
2022/05/22 12:37:42;;;;;;;2.78;1.00;;;29.30;59.90;;;;;;4957752;28;20027;-69
2022/05/22 12:40:30;;;;;;;4.60;1.00;;;29.40;60.00;;;;;;4991062;28;20109;-69
2022/05/22 12:42:58;;;;;;;3.13;1.15;;;29.10;60.50;;;;;;4984173;28;20034;-70
2022/05/22 12:45:28;;;;;;;3.20;1.17;;;28.90;60.70;;;;;;4981975;28;20038;-69
2022/05/22 12:47:55;;;;;;;3.78;0.95;;;28.70;61.00;;;;;;4977372;28;20026;-72
2022/05/22 12:50:31;;;;;;;2.65;1.08;;;28.90;60.70;;;;;;4980578;28;20030;-69
2022/05/22 12:52:57;;;;;;;3.38;1.00;;;29.20;61.80;;;;;;4961373;28;20388;-68
2022/05/22 12:55:35;;;;;;;2.22;1.10;;;29.40;64.60;;;;;;4986514;28;20044;-69
2022/05/22 12:58:03;;;;;;;3.97;1.00;;;29.50;63.00;;;;;;4980157;28;20037;-70
2022/05/22 13:00:37;;;;;;;3.08;1.10;;;29.20;66.90;;;;;;4985504;28;20030;-70
2022/05/22 13:03:13;;;;;;;3.95;1.13;;;29.10;65.50;;;;;;4989840;28;20061;-69
2022/05/22 13:05:41;;;;;;;4.43;1.30;;;28.80;65.30;;;;;;4980696;28;20038;-69
2022/05/22 13:08:18;;;;;;;3.67;1.33;;;28.80;65.10;;;;;;4983846;28;20054;-69
2022/05/22 13:10:56;;;;;;;2.20;1.30;;;28.70;64.60;;;;;;4987022;28;20440;-70
2022/05/22 13:13:30;;;;;;;5.18;1.20;;;28.40;63.50;;;;;;4980327;28;20046;-69
2022/05/22 13:16:04;;;;;;;2.85;1.30;;;28.10;68.00;;;;;;4991114;28;20022;-70
2022/05/22 13:18:31;;;;;;;2.75;1.42;;;28.00;67.50;;;;;;4990193;28;20464;-69
2022/05/22 13:21:00;;;;;;;4.10;1.38;;;27.60;66.90;;;;;;4971848;28;20033;-70